sensor_id;sensor_type;location;lat;lon;timestamp;pressure;altitude;pressure_sealevel;temperature;humidity
11643;BME280;5877;50.930;6.918;2023-04-19T00:03:50;101474.06;;;10.60;53.14
11643;BME280;5877;50.930;6.918;2023-04-19T00:08:42;101590.94;;;11.61;53.00
11643;BME280;5877;50.930;6.918;2023-04-19T00:13:35;101651.63;;;11.88;53.22
11643;BME280;5877;50.930;6.918;2023-04-19T00:18:26;101669.31;;;12.07;52.97
11643;BME280;5877;50.930;6.918;2023-04-19T00:23:18;101643.06;;;11.79;53.47
11643;BME280;5877;50.930;6.918;2023-04-19T00:28:10;101633.69;;;11.70;53.76
11643;BME280;5877;50.930;6.918;2023-04-19T00:33:02;101899.44;;;13.36;53.54
11643;BME280;5877;50.930;6.918;2023-04-19T00:37:54;101652.59;;;11.80;54.09
11643;BME280;5877;50.930;6.918;2023-04-19T00:42:46;101803.16;;;12.86;54.09
11643;BME280;5877;50.930;6.918;2023-04-19T00:47:38;101841.50;;;12.95;54.13
11643;BME280;5877;50.930;6.918;2023-04-19T00:52:31;101595.56;;;11.53;53.69
11643;BME280;5877;50.930;6.918;2023-04-19T00:57:24;101746.09;;;12.58;53.77
11643;BME280;5877;50.930;6.918;2023-04-19T01:02:16;101635.44;;;11.91;53.90
11643;BME280;5877;50.930;6.918;2023-04-19T01:07:08;101693.25;;;12.19;54.48
11643;BME280;5877;50.930;6.918;2023-04-19T01:12:00;101807.22;;;12.95;53.86
11643;BME280;5877;50.930;6.918;2023-04-19T01:16:56;101474.69;;;10.90;54.25
11643;BME280;5877;50.930;6.918;2023-04-19T01:21:50;101388.34;;;10.46;54.03
11643;BME280;5877;50.930;6.918;2023-04-19T01:26:43;101601.63;;;11.88;54.16
11643;BME280;5877;50.930;6.918;2023-04-19T01:31:35;101833.06;;;13.19;54.84
11643;BME280;5877;50.930;6.918;2023-04-19T01:36:27;101464.34;;;10.82;54.76
11643;BME280;5877;50.930;6.918;2023-04-19T01:41:19;101879.13;;;13.30;55.42
11643;BME280;5877;50.930;6.918;2023-04-19T01:46:13;101638.72;;;11.65;56.17
11643;BME280;5877;50.930;6.918;2023-04-19T01:51:05;101684.19;;;11.59;57.40
11643;BME280;5877;50.930;6.918;2023-04-19T01:55:58;101394.81;;;9.94;56.83
11643;BME280;5877;50.930;6.918;2023-04-19T02:00:50;101727.50;;;12.25;56.89
11643;BME280;5877;50.930;6.918;2023-04-19T02:05:42;101832.53;;;12.89;56.70
11643;BME280;5877;50.930;6.918;2023-04-19T02:10:33;101679.81;;;12.00;56.86
11643;BME280;5877;50.930;6.918;2023-04-19T02:15:26;101625.81;;;11.42;57.47
11643;BME280;5877;50.930;6.918;2023-04-19T02:20:18;101629.88;;;11.45;57.58
11643;BME280;5877;50.930;6.918;2023-04-19T02:25:12;101483.16;;;10.58;57.10
11643;BME280;5877;50.930;6.918;2023-04-19T02:30:04;101595.03;;;11.36;57.13
11643;BME280;5877;50.930;6.918;2023-04-19T02:34:57;101630.78;;;11.58;57.12
11643;BME280;5877;50.930;6.918;2023-04-19T02:39:49;101874.97;;;13.14;57.23
11643;BME280;5877;50.930;6.918;2023-04-19T02:44:41;101726.72;;;12.25;57.22
11643;BME280;5877;50.930;6.918;2023-04-19T02:49:32;101645.97;;;11.91;56.77
11643;BME280;5877;50.930;6.918;2023-04-19T02:54:28;101565.31;;;11.35;57.03
11643;BME280;5877;50.930;6.918;2023-04-19T02:59:19;101789.47;;;12.62;57.69
11643;BME280;5877;50.930;6.918;2023-04-19T03:04:11;101666.41;;;11.61;58.15
11643;BME280;5877;50.930;6.918;2023-04-19T03:09:04;101721.09;;;12.00;58.23
11643;BME280;5877;50.930;6.918;2023-04-19T03:13:57;101627.91;;;11.25;58.40
11643;BME280;5877;50.930;6.918;2023-04-19T03:18:48;101515.47;;;10.58;58.78
11643;BME280;5877;50.930;6.918;2023-04-19T03:23:44;101672.94;;;11.44;59.33
11643;BME280;5877;50.930;6.918;2023-04-19T03:28:37;101605.41;;;11.16;58.70
11643;BME280;5877;50.930;6.918;2023-04-19T03:33:45;101672.69;;;11.38;59.72
11643;BME280;5877;50.930;6.918;2023-04-19T03:38:38;101560.81;;;10.73;60.16
11643;BME280;5877;50.930;6.918;2023-04-19T03:43:35;101573.38;;;10.78;60.12
11643;BME280;5877;50.930;6.918;2023-04-19T03:48:27;101854.53;;;12.68;60.47
11643;BME280;5877;50.930;6.918;2023-04-19T03:53:20;101571.06;;;10.68;61.07
11643;BME280;5877;50.930;6.918;2023-04-19T03:58:11;101533.44;;;10.61;60.80
11643;BME280;5877;50.930;6.918;2023-04-19T04:03:26;101600.88;;;11.03;61.27
11643;BME280;5877;50.930;6.918;2023-04-19T04:08:18;101583.25;;;10.76;61.85
11643;BME280;5877;50.930;6.918;2023-04-19T04:13:11;101845.94;;;12.53;62.04
11643;BME280;5877;50.930;6.918;2023-04-19T04:18:23;101849.50;;;12.39;62.44
11643;BME280;5877;50.930;6.918;2023-04-19T04:23:15;101656.84;;;11.04;62.70
11643;BME280;5877;50.930;6.918;2023-04-19T04:28:12;101499.72;;;10.16;61.88
11643;BME280;5877;50.930;6.918;2023-04-19T04:33:04;101555.38;;;10.75;61.55
11643;BME280;5877;50.930;6.918;2023-04-19T04:37:56;101745.88;;;11.84;62.00
11643;BME280;5877;50.930;6.918;2023-04-19T04:42:50;101569.41;;;10.61;62.30
11643;BME280;5877;50.930;6.918;2023-04-19T13:11:39;101488.47;;;16.35;24.50
11643;BME280;5877;50.930;6.918;2023-04-19T13:16:31;101284.03;;;15.15;23.65
11643;BME280;5877;50.930;6.918;2023-04-19T13:21:23;101248.16;;;15.19;23.81
11643;BME280;5877;50.930;6.918;2023-04-19T13:26:16;101307.63;;;16.16;22.75
11643;BME280;5877;50.930;6.918;2023-04-19T13:31:08;101364.41;;;16.09;22.63
11643;BME280;5877;50.930;6.918;2023-04-19T13:36:00;101530.25;;;16.75;21.99
11643;BME280;5877;50.930;6.918;2023-04-19T13:40:52;101397.56;;;16.00;21.81
11643;BME280;5877;50.930;6.918;2023-04-19T13:45:43;101535.22;;;16.83;21.68
11643;BME280;5877;50.930;6.918;2023-04-19T13:50:36;101382.81;;;16.04;21.35
11643;BME280;5877;50.930;6.918;2023-04-19T13:55:28;101501.19;;;16.56;21.49
11643;BME280;5877;50.930;6.918;2023-04-19T14:00:20;101293.63;;;15.39;22.04
11643;BME280;5877;50.930;6.918;2023-04-19T14:05:11;101275.69;;;15.41;22.27
11643;BME280;5877;50.930;6.918;2023-04-19T14:10:04;101253.25;;;14.90;22.40
11643;BME280;5877;50.930;6.918;2023-04-19T14:14:57;101414.72;;;16.20;22.10
11643;BME280;5877;50.930;6.918;2023-04-19T14:19:50;101332.03;;;15.83;21.88
11643;BME280;5877;50.930;6.918;2023-04-19T14:24:42;101187.06;;;14.97;21.82
11643;BME280;5877;50.930;6.918;2023-04-19T14:29:34;101141.88;;;14.27;22.19
11643;BME280;5877;50.930;6.918;2023-04-19T14:34:26;101179.69;;;14.57;22.08
11643;BME280;5877;50.930;6.918;2023-04-19T14:39:18;101255.78;;;14.97;21.41
11643;BME280;5877;50.930;6.918;2023-04-19T14:44:10;101158.75;;;14.08;21.91
11643;BME280;5877;50.930;6.918;2023-04-19T14:49:02;101208.13;;;14.74;21.76
11643;BME280;5877;50.930;6.918;2023-04-19T14:53:58;101358.59;;;15.77;21.62
11643;BME280;5877;50.930;6.918;2023-04-19T14:58:51;101432.50;;;16.43;21.51
11643;BME280;5877;50.930;6.918;2023-04-19T15:03:43;101228.59;;;14.78;21.69
11643;BME280;5877;50.930;6.918;2023-04-19T15:08:35;101328.72;;;15.46;21.82
11643;BME280;5877;50.930;6.918;2023-04-19T15:13:27;101423.09;;;15.94;21.79
11643;BME280;5877;50.930;6.918;2023-04-19T15:18:20;101361.84;;;15.37;21.65
11643;BME280;5877;50.930;6.918;2023-04-19T15:23:12;101463.91;;;16.16;21.56
11643;BME280;5877;50.930;6.918;2023-04-19T15:28:04;101370.38;;;15.51;22.31
11643;BME280;5877;50.930;6.918;2023-04-19T15:32:56;101078.19;;;13.87;22.25
11643;BME280;5877;50.930;6.918;2023-04-19T15:37:47;101366.44;;;15.42;22.74
11643;BME280;5877;50.930;6.918;2023-04-19T15:42:39;101338.78;;;15.26;23.30
11643;BME280;5877;50.930;6.918;2023-04-19T15:47:32;101130.53;;;13.90;23.54
11643;BME280;5877;50.930;6.918;2023-04-19T15:52:24;101216.22;;;14.60;23.92
11643;BME280;5877;50.930;6.918;2023-04-19T15:57:17;101220.06;;;14.46;24.29
11643;BME280;5877;50.930;6.918;2023-04-19T16:02:08;101341.16;;;15.16;24.06
11643;BME280;5877;50.930;6.918;2023-04-19T16:07:00;101353.31;;;15.35;24.00
11643;BME280;5877;50.930;6.918;2023-04-19T16:11:52;101187.56;;;14.46;24.47
11643;BME280;5877;50.930;6.918;2023-04-19T16:16:44;101312.66;;;14.88;24.81
11643;BME280;5877;50.930;6.918;2023-04-19T16:21:36;101202.00;;;14.25;24.85
11643;BME280;5877;50.930;6.918;2023-04-19T16:26:27;101276.28;;;14.53;24.88
11643;BME280;5877;50.930;6.918;2023-04-19T16:31:19;101087.13;;;13.06;25.38
11643;BME280;5877;50.930;6.918;2023-04-19T16:36:11;101280.84;;;14.21;25.45
11643;BME280;5877;50.930;6.918;2023-04-19T16:41:03;101312.63;;;14.33;25.23
11643;BME280;5877;50.930;6.918;2023-04-19T16:45:56;100990.66;;;12.06;24.79
11643;BME280;5877;50.930;6.918;2023-04-19T16:50:48;101126.75;;;12.68;25.25
11643;BME280;5877;50.930;6.918;2023-04-19T16:55:40;101309.50;;;14.00;24.83
11643;BME280;5877;50.930;6.918;2023-04-19T17:00:31;101474.75;;;14.82;24.68
11643;BME280;5877;50.930;6.918;2023-04-19T17:05:23;101465.44;;;14.79;25.02
11643;BME280;5877;50.930;6.918;2023-04-19T17:10:15;101317.09;;;13.89;25.39
11643;BME280;5877;50.930;6.918;2023-04-19T17:15:07;101397.50;;;14.37;25.67
11643;BME280;5877;50.930;6.918;2023-04-19T17:19:59;101340.53;;;13.79;25.47
11643;BME280;5877;50.930;6.918;2023-04-19T17:24:51;101459.66;;;14.39;25.56
11643;BME280;5877;50.930;6.918;2023-04-19T17:29:44;101172.34;;;12.68;24.70
11643;BME280;5877;50.930;6.918;2023-04-19T17:34:36;101252.75;;;13.02;24.73
11643;BME280;5877;50.930;6.918;2023-04-19T18:49:24;101445.44;;;11.95;28.71
11643;BME280;5877;50.930;6.918;2023-04-19T18:54:16;101348.19;;;11.34;29.08
11643;BME280;5877;50.930;6.918;2023-04-19T18:59:09;101490.00;;;12.30;29.24
11643;BME280;5877;50.930;6.918;2023-04-19T19:04:02;101119.19;;;9.76;29.99
11643;BME280;5877;50.930;6.918;2023-04-19T19:08:57;101171.59;;;9.76;30.02
11643;BME280;5877;50.930;6.918;2023-04-19T19:13:50;101499.06;;;11.94;30.25
11643;BME280;5877;50.930;6.918;2023-04-19T19:18:43;101344.34;;;10.83;30.77
11643;BME280;5877;50.930;6.918;2023-04-19T19:23:43;101156.66;;;9.42;31.46
11643;BME280;5877;50.930;6.918;2023-04-19T19:28:40;101137.69;;;9.40;31.60
11643;BME280;5877;50.930;6.918;2023-04-19T19:33:45;101518.09;;;11.55;32.25
11643;BME280;5877;50.930;6.918;2023-04-19T19:39:24;101268.69;;;9.89;32.52
11643;BME280;5877;50.930;6.918;2023-04-19T19:44:46;101212.66;;;9.41;32.48
11643;BME280;5877;50.930;6.918;2023-04-19T19:49:46;101302.41;;;9.92;32.91
11643;BME280;5877;50.930;6.918;2023-04-19T19:54:59;101520.13;;;11.19;33.12
11643;BME280;5877;50.930;6.918;2023-04-19T22:03:25;101034.97;;;6.25;39.32
11643;BME280;5877;50.930;6.918;2023-04-19T22:08:17;101406.22;;;8.56;39.51
11643;BME280;5877;50.930;6.918;2023-04-19T22:13:09;101290.34;;;7.65;39.68
11643;BME280;5877;50.930;6.918;2023-04-19T22:18:01;101285.59;;;7.69;40.02
11643;BME280;5877;50.930;6.918;2023-04-19T22:22:54;101386.19;;;8.48;39.66
11643;BME280;5877;50.930;6.918;2023-04-19T22:27:46;101387.44;;;8.37;39.70
11643;BME280;5877;50.930;6.918;2023-04-19T22:32:39;101267.09;;;7.56;40.06
11643;BME280;5877;50.930;6.918;2023-04-19T22:37:31;101283.84;;;7.61;39.94
11643;BME280;5877;50.930;6.918;2023-04-19T22:42:23;101092.97;;;6.50;40.25
11643;BME280;5877;50.930;6.918;2023-04-19T22:47:15;101163.44;;;6.96;40.67
11643;BME280;5877;50.930;6.918;2023-04-19T22:52:07;101288.84;;;7.71;40.70
11643;BME280;5877;50.930;6.918;2023-04-19T22:56:59;101337.47;;;8.09;40.35
11643;BME280;5877;50.930;6.918;2023-04-19T23:01:51;100977.59;;;5.71;40.88
11643;BME280;5877;50.930;6.918;2023-04-19T23:06:43;101359.94;;;8.19;41.03
11643;BME280;5877;50.930;6.918;2023-04-19T23:11:36;101174.84;;;7.18;40.82
11643;BME280;5877;50.930;6.918;2023-04-19T23:16:28;101334.19;;;7.93;41.27
11643;BME280;5877;50.930;6.918;2023-04-19T23:21:20;101127.00;;;6.79;40.78
11643;BME280;5877;50.930;6.918;2023-04-19T23:26:12;101289.25;;;7.60;41.78
11643;BME280;5877;50.930;6.918;2023-04-19T23:37:41;101149.38;;;6.97;41.09
11643;BME280;5877;50.930;6.918;2023-04-19T23:42:37;101054.22;;;6.47;41.24
11643;BME280;5877;50.930;6.918;2023-04-19T23:47:29;101114.50;;;6.75;40.53
11643;BME280;5877;50.930;6.918;2023-04-19T23:52:21;101024.25;;;6.20;40.48
11643;BME280;5877;50.930;6.918;2023-04-19T23:57:13;101347.50;;;8.21;40.19
